KFLO/FLO METAR and TAF weather

Enter ICAO airport designator
Station Type Date Time Source
KFLO METAR 2021/01/16 03:17 UTC NOAA

KFLO 160317Z AUTO 00000KT 1/2SM FG CLR 07/07 A2970 RMK AO2 T00720067


Station Type Date Time Source
KFLO Decoded METAR 2021/01/16 03:17 UTC NOAA

FLORENCE REGIONAL AIRPORT, SC, United States (KFLO) 34-11N 079-44W 44M
Jan 15, 2021 - 10:17 PM EST / 2021.01.16 0317 UTC
Wind: Calm:0
Visibility: 1/2 mile(s):0
Sky conditions: clear
Weather: fog
Temperature: 45.0 F (7.2 C)
Dew Point: 44.1 F (6.7 C)
Relative Humidity: 96%
Pressure (altimeter): 29.7 in. Hg (1005 hPa)
ob: KFLO 160317Z AUTO 00000KT 1/2SM FG CLR 07/07 A2970 RMK AO2 T00720067
cycle: 3

Station Type Date Time Source
KFLO TAF 2021/01/16 03:57 UTC NOAA

TAF
AMD KFLO 160254Z 1603/1624 30003KT 3SM BR SKC
TEMPO 1603/1607 1/2SM FG SCT003
FM161300 24007KT P6SM FEW200
FM161500 24012G19KT P6SM FEW200
FM161800 25017G24KT P6SM SCT060
FM162300 26012G19KT P6SM SKC

Example: see airport list